Lindsey Graham — WDG9563 — position and weather

sailwx.info

Track history (hours):
 
Tides and Currents Weather Stations Pressure Air Temp Water Temp Dewpoint Dewpoint Depression Visibility Wind Speed Wind Dir Waves Ship Positions

Lindsey Graham

Owner: Blessey Enterprises, Inc., Harahan, LA. More information available from US FCC via Universal Licensing System and Coast Guard Vessel Documentation Center.

Last reported at 2018-Jun-20 01:36 UTC. Time now 2018-Jun-20 16:53 UTC.
Position N 29°44' W 095°08'.

Length 26 m.

Type: Towing. MMSI: 367589050.

Date/timePositionNaut miles runAvg speedWind from/ knotsBaromVisibWave heightAir tempDewpointWater temp
2018-Jun-20 01:36N 29°44' W 095°08'  
2018-Jun-15 19:15N 29°42' W 095°01'2 6.7
2018-Jun-15 18:59N 29°41' W 094°59'3 7.1
2018-Jun-15 18:30N 29°38' W 094°58'14 7.6
2018-Jun-15 16:43N 29°26' W 094°50'2 8.4
2018-Jun-15 16:30N 29°25' W 094°49'3 6.8
2018-Jun-15 16:00N 29°21' W 094°48'1 0.9
2018-Jun-15 15:00N 29°21' W 094°49'0 0.0
2018-Jun-15 14:30N 29°21' W 094°49'0 0.0
2018-Jun-15 14:00N 29°21' W 094°49'0 0.0
2018-Jun-15 13:30N 29°21' W 094°49'0 0.0
2018-Jun-15 13:00N 29°21' W 094°49'0 0.0
2018-Jun-15 12:30N 29°21' W 094°49'0 0.0
2018-Jun-15 12:00N 29°21' W 094°49'0 0.0
2018-Jun-15 11:30N 29°21' W 094°49'0 0.0
2018-Jun-15 11:00N 29°21' W 094°49'0 0.0
2018-Jun-15 10:31N 29°21' W 094°49'0 0.0
2018-Jun-15 10:00N 29°21' W 094°49'0 0.0
2018-Jun-15 09:30N 29°21' W 094°49'0 0.0
2018-Jun-15 09:00N 29°21' W 094°49'0 0.0
2018-Jun-15 08:31N 29°21' W 094°49'0 0.0
2018-Jun-15 08:01N 29°21' W 094°49'0 0.0
2018-Jun-15 07:31N 29°21' W 094°49'0 0.0
2018-Jun-15 07:01N 29°21' W 094°49'0 0.0
2018-Jun-15 06:30N 29°21' W 094°49'0 0.0
2018-Jun-15 06:00N 29°21' W 094°49'0 0.0
2018-Jun-15 05:30N 29°21' W 094°49'0 0.0
2018-Jun-15 05:00N 29°21' W 094°49'0 0.0
2018-Jun-15 04:31N 29°21' W 094°49'0 0.0
2018-Jun-15 04:00N 29°21' W 094°49'0 0.0
2018-Jun-15 03:29N 29°21' W 094°49'0 0.0
2018-Jun-15 03:00N 29°21' W 094°49'0 0.0
2018-Jun-15 02:30N 29°21' W 094°49'0 0.0
2018-Jun-15 02:00N 29°21' W 094°49'0 0.0
2018-Jun-15 01:30N 29°21' W 094°49'0 0.0
2018-Jun-15 01:00N 29°21' W 094°49'0 0.0
2018-Jun-15 00:30N 29°21' W 094°49'0 0.0
2018-Jun-15 00:00N 29°21' W 094°49'0 0.0
2018-Jun-14 23:31N 29°21' W 094°49'0 0.0
2018-Jun-14 23:00N 29°21' W 094°49'0 0.0
2018-Jun-14 22:30N 29°21' W 094°49'0 0.0
2018-Jun-14 22:00N 29°21' W 094°49'0 0.0
2018-Jun-14 21:30N 29°21' W 094°49'0 0.0
2018-Jun-14 21:00N 29°21' W 094°49'0 0.0
2018-Jun-14 20:30N 29°21' W 094°49'0 0.0
2018-Jun-14 20:01N 29°21' W 094°49'0 0.0
2018-Jun-14 19:30N 29°21' W 094°49'0 0.0
2018-Jun-14 19:01N 29°21' W 094°49'0 0.0
2018-Jun-14 18:30N 29°21' W 094°49'0 0.0
2018-Jun-14 18:01N 29°21' W 094°49'0 0.0
2018-Jun-14 17:30N 29°21' W 094°49'0 0.0
2018-Jun-14 17:00N 29°21' W 094°49'0 0.0
2018-Jun-14 16:30N 29°21' W 094°49'0 0.0
2018-Jun-14 16:00N 29°21' W 094°49'0 0.0
2018-Jun-14 15:30N 29°21' W 094°49'0 0.0
2018-Jun-14 15:00N 29°21' W 094°49'0 0.0
2018-Jun-14 14:30N 29°21' W 094°49'0 0.0
2018-Jun-14 13:59N 29°21' W 094°49'0 0.0
2018-Jun-14 13:30N 29°21' W 094°49'0 0.0
2018-Jun-14 13:00N 29°21' W 094°49'0 0.0
2018-Jun-14 12:30N 29°21' W 094°49'0 0.0
2018-Jun-14 12:00N 29°21' W 094°49'0 0.0
2018-Jun-14 11:31N 29°21' W 094°49'0 0.0
2018-Jun-14 11:00N 29°21' W 094°49'0 0.0
2018-Jun-14 10:30N 29°21' W 094°49'0 0.0
2018-Jun-14 10:00N 29°21' W 094°49'0 0.0
2018-Jun-14 09:30N 29°21' W 094°49'0 0.0
2018-Jun-14 09:00N 29°21' W 094°49'0 0.0
2018-Jun-14 08:30N 29°21' W 094°49'0 0.0
2018-Jun-14 08:00N 29°21' W 094°49'0 0.0
2018-Jun-14 07:31N 29°21' W 094°49'0 0.0
2018-Jun-14 07:00N 29°21' W 094°49'0 0.0
2018-Jun-14 06:30N 29°21' W 094°49'0 0.0
2018-Jun-14 06:00N 29°21' W 094°49'0 0.0
2018-Jun-14 05:30N 29°21' W 094°49'0 0.0
2018-Jun-14 05:00N 29°21' W 094°49'0 0.0
2018-Jun-14 04:31N 29°21' W 094°49'0 0.0
2018-Jun-14 04:00N 29°21' W 094°49'0 0.0
2018-Jun-14 03:30N 29°21' W 094°49'0 0.0
2018-Jun-14 03:00N 29°21' W 094°49'0 0.0
2018-Jun-14 02:28N 29°21' W 094°49'0 0.0
2018-Jun-14 02:00N 29°21' W 094°49'0 0.0
2018-Jun-14 01:30N 29°21' W 094°49'0 0.0
2018-Jun-14 00:59N 29°21' W 094°49'0 0.0
2018-Jun-14 00:31N 29°21' W 094°49'0 0.0
2018-Jun-14 00:01N 29°21' W 094°49'0 0.0
2018-Jun-13 23:31N 29°21' W 094°49'0 0.0
2018-Jun-13 23:00N 29°21' W 094°49'0 0.0
2018-Jun-13 22:30N 29°21' W 094°49'0 0.0
2018-Jun-13 22:00N 29°21' W 094°49'0 0.0
2018-Jun-13 21:30N 29°21' W 094°49'0 0.0
2018-Jun-13 21:00N 29°21' W 094°49'0 0.0
2018-Jun-13 20:30N 29°21' W 094°49'0 0.0
2018-Jun-13 19:57N 29°21' W 094°49'0 0.0
2018-Jun-13 19:30N 29°21' W 094°49'0 0.0
2018-Jun-13 19:00N 29°21' W 094°49'0 0.0
2018-Jun-13 18:30N 29°21' W 094°49'0 0.0
2018-Jun-13 18:01N 29°21' W 094°49'0 0.0
2018-Jun-13 17:30N 29°21' W 094°49'0 0.0
2018-Jun-13 17:00N 29°21' W 094°49'0 0.0
2018-Jun-13 16:31N 29°21' W 094°49'0 0.0
2018-Jun-13 16:00N 29°21' W 094°49'0 0.0
2018-Jun-13 15:30N 29°21' W 094°49'0 0.0
2018-Jun-13 15:00N 29°21' W 094°49'0 0.0
2018-Jun-13 14:29N 29°21' W 094°49'0 0.0
2018-Jun-13 14:01N 29°21' W 094°49'0 0.0
2018-Jun-13 13:31N 29°21' W 094°49'0 0.0
2018-Jun-13 13:01N 29°21' W 094°49'0 0.0
2018-Jun-13 12:31N 29°21' W 094°49'0 0.0
2018-Jun-13 11:56N 29°21' W 094°49'0 0.0
2018-Jun-13 11:29N 29°21' W 094°49'0 0.0
2018-Jun-13 11:00N 29°21' W 094°49'0 0.0
2018-Jun-13 10:30N 29°21' W 094°49'0 0.0
2018-Jun-13 10:00N 29°21' W 094°49'0 0.0
2018-Jun-13 09:30N 29°21' W 094°49'0 0.0
2018-Jun-13 09:00N 29°21' W 094°49'0 0.0
2018-Jun-13 08:30N 29°21' W 094°49'0 0.0
2018-Jun-13 08:01N 29°21' W 094°49'0 0.0
2018-Jun-13 07:30N 29°21' W 094°49'0 0.0
2018-Jun-13 07:00N 29°21' W 094°49'0 0.0
2018-Jun-13 06:30N 29°21' W 094°49'0 0.0
2018-Jun-13 06:00N 29°21' W 094°49'0 0.0
2018-Jun-13 05:30N 29°21' W 094°49'0 0.0
2018-Jun-13 05:00N 29°21' W 094°49'0 0.0
2018-Jun-13 04:30N 29°21' W 094°49'0 0.0
2018-Jun-13 04:00N 29°21' W 094°49'0 0.0
2018-Jun-13 03:30N 29°21' W 094°49'0 0.0
2018-Jun-13 03:01N 29°21' W 094°49'0 0.0
2018-Jun-13 02:31N 29°21' W 094°49'0 0.0
2018-Jun-13 02:00N 29°21' W 094°49'0 0.0
2018-Jun-13 01:30N 29°21' W 094°49'0 0.0
2018-Jun-13 01:00N 29°21' W 094°49'0 0.0
2018-Jun-13 00:30N 29°21' W 094°49'0 0.0
2018-Jun-13 00:00N 29°21' W 094°49'0 0.0
2018-Jun-12 23:30N 29°21' W 094°49'0 0.0
2018-Jun-12 23:00N 29°21' W 094°49'0 0.0
2018-Jun-12 22:30N 29°21' W 094°49'0 0.0
2018-Jun-12 22:00N 29°21' W 094°49'1 2.8
2018-Jun-12 21:30N 29°20' W 094°51'3 6.2
2018-Jun-12 21:00N 29°18' W 094°53'2 3.5
2018-Jun-12 20:30N 29°17' W 094°55'3 5.4
2018-Jun-12 20:00N 29°17' W 094°58'3 5.1
2018-Jun-12 19:30N 29°15' W 095°00'3 5.2
2018-Jun-12 19:00N 29°13' W 095°02'3 5.1
2018-Jun-12 18:31N 29°12' W 095°04'3 5.5
2018-Jun-12 18:00N 29°10' W 095°07'3 5.8
2018-Jun-12 17:31N 29°08' W 095°10'3 5.3
2018-Jun-12 17:00N 29°07' W 095°12'3 5.2
2018-Jun-12 16:30N 29°04' W 095°13'3 5.1
2018-Jun-12 16:00N 29°02' W 095°14'3 5.3
2018-Jun-12 15:30N 28°59' W 095°15'2 4.9
2018-Jun-12 15:00N 28°58' W 095°17'3 0.1
2018-Jun-11 00:58N 28°56' W 095°20'3 5.6
2018-Jun-11 00:29N 28°58' W 095°17'3 5.8
2018-Jun-11 00:00N 28°60' W 095°15'3 5.7
2018-Jun-10 23:30N 29°02' W 095°14'2 5.0
2018-Jun-10 23:00N 29°04' W 095°13'2 4.6
2018-Jun-10 22:30N 29°07' W 095°12'2 4.5
2018-Jun-10 22:00N 29°08' W 095°10'3 5.1
2018-Jun-10 21:30N 29°10' W 095°08'2 4.1
2018-Jun-10 21:00N 29°11' W 095°06'3 5.1
2018-Jun-10 20:30N 29°12' W 095°03'2 5.0
2018-Jun-10 20:00N 29°14' W 095°01'3 5.3
2018-Jun-10 19:30N 29°16' W 094°59'2 4.9
2018-Jun-10 19:00N 29°17' W 094°57'3 5.1
2018-Jun-10 18:30N 29°17' W 094°54'3 5.5
2018-Jun-10 18:00N 29°19' W 094°52'3 5.6
2018-Jun-10 17:30N 29°21' W 094°49'3 6.5
2018-Jun-10 17:00N 29°23' W 094°46'20 5.3
2018-Jun-10 13:18N 29°34' W 094°28'2 5.1
2018-Jun-10 12:56N 29°34' W 094°25'2 4.2
2018-Jun-10 12:29N 29°36' W 094°25'1 2.6
2018-Jun-10 12:00N 29°36' W 094°23'1 2.9
2018-Jun-10 11:30N 29°36' W 094°22'2 5.0
2018-Jun-10 11:00N 29°38' W 094°19'3 5.1
2018-Jun-10 10:30N 29°39' W 094°17'3 5.2
2018-Jun-10 10:00N 29°40' W 094°14'3 5.4
2018-Jun-10 09:30N 29°41' W 094°11'3 5.5
2018-Jun-10 09:00N 29°42' W 094°08'3 5.9
2018-Jun-10 08:31N 29°44' W 094°06'3 6.0
2018-Jun-10 08:00N 29°46' W 094°03'3 5.1
2018-Jun-10 07:30N 29°48' W 094°01'3 5.1
2018-Jun-10 07:01N 29°49' W 093°58'3 5.8
2018-Jun-10 06:30N 29°52' W 093°56'3 6.5
2018-Jun-10 06:00N 29°54' W 093°54'4 7.5
2018-Jun-10 05:31N 29°57' W 093°52'3 6.0
2018-Jun-10 05:00N 29°59' W 093°49'4 7.2
2018-Jun-10 04:30N 30°01' W 093°45'4 6.2
2018-Jun-10 03:57N 30°03' W 093°42'3 5.8
2018-Jun-10 03:30N 30°04' W 093°40'3 5.6
2018-Jun-10 03:00N 30°04' W 093°36'2 4.8
2018-Jun-10 02:30N 30°04' W 093°34'2 4.2
2018-Jun-10 02:00N 30°04' W 093°31'  
Track history (hours):
 
Tides and Currents Weather Stations Pressure Air Temp Water Temp Dewpoint Dewpoint Depression Visibility Wind Speed Wind Dir Waves Ship Positions

Lindsey Graham

Owner: Blessey Enterprises, Inc., Harahan, LA. More information available from US FCC via Universal Licensing System and Coast Guard Vessel Documentation Center.

Last reported at 2018-Jun-20 01:36 UTC. Time now 2018-Jun-20 16:53 UTC.
Position N 29°44' W 095°08'.

Length 26 m.

Type: Towing. MMSI: 367589050.

Date/timePositionNaut miles runAvg speedWind from/ knotsBaromVisibWave heightAir tempDewpointWater temp
2018-Jun-20 01:36N 29°44' W 095°08'  
2018-Jun-15 19:15N 29°42' W 095°01'2 6.7
2018-Jun-15 18:59N 29°41' W 094°59'3 7.1
2018-Jun-15 18:30N 29°38' W 094°58'14 7.6
2018-Jun-15 16:43N 29°26' W 094°50'2 8.4
2018-Jun-15 16:30N 29°25' W 094°49'3 6.8
2018-Jun-15 16:00N 29°21' W 094°48'1 0.9
2018-Jun-15 15:00N 29°21' W 094°49'0 0.0
2018-Jun-15 14:30N 29°21' W 094°49'0 0.0
2018-Jun-15 14:00N 29°21' W 094°49'0 0.0
2018-Jun-15 13:30N 29°21' W 094°49'0 0.0
2018-Jun-15 13:00N 29°21' W 094°49'0 0.0
2018-Jun-15 12:30N 29°21' W 094°49'0 0.0
2018-Jun-15 12:00N 29°21' W 094°49'0 0.0
2018-Jun-15 11:30N 29°21' W 094°49'0 0.0
2018-Jun-15 11:00N 29°21' W 094°49'0 0.0
2018-Jun-15 10:31N 29°21' W 094°49'0 0.0
2018-Jun-15 10:00N 29°21' W 094°49'0 0.0
2018-Jun-15 09:30N 29°21' W 094°49'0 0.0
2018-Jun-15 09:00N 29°21' W 094°49'0 0.0
2018-Jun-15 08:31N 29°21' W 094°49'0 0.0
2018-Jun-15 08:01N 29°21' W 094°49'0 0.0
2018-Jun-15 07:31N 29°21' W 094°49'0 0.0
2018-Jun-15 07:01N 29°21' W 094°49'0 0.0
2018-Jun-15 06:30N 29°21' W 094°49'0 0.0
2018-Jun-15 06:00N 29°21' W 094°49'0 0.0
2018-Jun-15 05:30N 29°21' W 094°49'0 0.0
2018-Jun-15 05:00N 29°21' W 094°49'0 0.0
2018-Jun-15 04:31N 29°21' W 094°49'0 0.0
2018-Jun-15 04:00N 29°21' W 094°49'0 0.0
2018-Jun-15 03:29N 29°21' W 094°49'0 0.0
2018-Jun-15 03:00N 29°21' W 094°49'0 0.0
2018-Jun-15 02:30N 29°21' W 094°49'0 0.0
2018-Jun-15 02:00N 29°21' W 094°49'0 0.0
2018-Jun-15 01:30N 29°21' W 094°49'0 0.0
2018-Jun-15 01:00N 29°21' W 094°49'0 0.0
2018-Jun-15 00:30N 29°21' W 094°49'0 0.0
2018-Jun-15 00:00N 29°21' W 094°49'0 0.0
2018-Jun-14 23:31N 29°21' W 094°49'0 0.0
2018-Jun-14 23:00N 29°21' W 094°49'0 0.0
2018-Jun-14 22:30N 29°21' W 094°49'0 0.0
2018-Jun-14 22:00N 29°21' W 094°49'0 0.0
2018-Jun-14 21:30N 29°21' W 094°49'0 0.0
2018-Jun-14 21:00N 29°21' W 094°49'0 0.0
2018-Jun-14 20:30N 29°21' W 094°49'0 0.0
2018-Jun-14 20:01N 29°21' W 094°49'0 0.0
2018-Jun-14 19:30N 29°21' W 094°49'0 0.0
2018-Jun-14 19:01N 29°21' W 094°49'0 0.0
2018-Jun-14 18:30N 29°21' W 094°49'0 0.0
2018-Jun-14 18:01N 29°21' W 094°49'0 0.0
2018-Jun-14 17:30N 29°21' W 094°49'0 0.0
2018-Jun-14 17:00N 29°21' W 094°49'0 0.0
2018-Jun-14 16:30N 29°21' W 094°49'0 0.0
2018-Jun-14 16:00N 29°21' W 094°49'0 0.0
2018-Jun-14 15:30N 29°21' W 094°49'0 0.0
2018-Jun-14 15:00N 29°21' W 094°49'0 0.0
2018-Jun-14 14:30N 29°21' W 094°49'0 0.0
2018-Jun-14 13:59N 29°21' W 094°49'0 0.0
2018-Jun-14 13:30N 29°21' W 094°49'0 0.0
2018-Jun-14 13:00N 29°21' W 094°49'0 0.0
2018-Jun-14 12:30N 29°21' W 094°49'0 0.0
2018-Jun-14 12:00N 29°21' W 094°49'0 0.0
2018-Jun-14 11:31N 29°21' W 094°49'0 0.0
2018-Jun-14 11:00N 29°21' W 094°49'0 0.0
2018-Jun-14 10:30N 29°21' W 094°49'0 0.0
2018-Jun-14 10:00N 29°21' W 094°49'0 0.0
2018-Jun-14 09:30N 29°21' W 094°49'0 0.0
2018-Jun-14 09:00N 29°21' W 094°49'0 0.0
2018-Jun-14 08:30N 29°21' W 094°49'0 0.0
2018-Jun-14 08:00N 29°21' W 094°49'0 0.0
2018-Jun-14 07:31N 29°21' W 094°49'0 0.0
2018-Jun-14 07:00N 29°21' W 094°49'0 0.0
2018-Jun-14 06:30N 29°21' W 094°49'0 0.0
2018-Jun-14 06:00N 29°21' W 094°49'0 0.0
2018-Jun-14 05:30N 29°21' W 094°49'0 0.0
2018-Jun-14 05:00N 29°21' W 094°49'0 0.0
2018-Jun-14 04:31N 29°21' W 094°49'0 0.0
2018-Jun-14 04:00N 29°21' W 094°49'0 0.0
2018-Jun-14 03:30N 29°21' W 094°49'0 0.0
2018-Jun-14 03:00N 29°21' W 094°49'0 0.0
2018-Jun-14 02:28N 29°21' W 094°49'0 0.0
2018-Jun-14 02:00N 29°21' W 094°49'0 0.0
2018-Jun-14 01:30N 29°21' W 094°49'0 0.0
2018-Jun-14 00:59N 29°21' W 094°49'0 0.0
2018-Jun-14 00:31N 29°21' W 094°49'0 0.0
2018-Jun-14 00:01N 29°21' W 094°49'0 0.0
2018-Jun-13 23:31N 29°21' W 094°49'0 0.0
2018-Jun-13 23:00N 29°21' W 094°49'0 0.0
2018-Jun-13 22:30N 29°21' W 094°49'0 0.0
2018-Jun-13 22:00N 29°21' W 094°49'0 0.0
2018-Jun-13 21:30N 29°21' W 094°49'0 0.0
2018-Jun-13 21:00N 29°21' W 094°49'0 0.0
2018-Jun-13 20:30N 29°21' W 094°49'0 0.0
2018-Jun-13 19:57N 29°21' W 094°49'0 0.0
2018-Jun-13 19:30N 29°21' W 094°49'0 0.0
2018-Jun-13 19:00N 29°21' W 094°49'0 0.0
2018-Jun-13 18:30N 29°21' W 094°49'0 0.0
2018-Jun-13 18:01N 29°21' W 094°49'0 0.0
2018-Jun-13 17:30N 29°21' W 094°49'0 0.0
2018-Jun-13 17:00N 29°21' W 094°49'0 0.0
2018-Jun-13 16:31N 29°21' W 094°49'0 0.0
2018-Jun-13 16:00N 29°21' W 094°49'0 0.0
2018-Jun-13 15:30N 29°21' W 094°49'0 0.0
2018-Jun-13 15:00N 29°21' W 094°49'0 0.0
2018-Jun-13 14:29N 29°21' W 094°49'0 0.0
2018-Jun-13 14:01N 29°21' W 094°49'0 0.0
2018-Jun-13 13:31N 29°21' W 094°49'0 0.0
2018-Jun-13 13:01N 29°21' W 094°49'0 0.0
2018-Jun-13 12:31N 29°21' W 094°49'0 0.0
2018-Jun-13 11:56N 29°21' W 094°49'0 0.0
2018-Jun-13 11:29N 29°21' W 094°49'0 0.0
2018-Jun-13 11:00N 29°21' W 094°49'0 0.0
2018-Jun-13 10:30N 29°21' W 094°49'0 0.0
2018-Jun-13 10:00N 29°21' W 094°49'0 0.0
2018-Jun-13 09:30N 29°21' W 094°49'0 0.0
2018-Jun-13 09:00N 29°21' W 094°49'0 0.0
2018-Jun-13 08:30N 29°21' W 094°49'0 0.0
2018-Jun-13 08:01N 29°21' W 094°49'0 0.0
2018-Jun-13 07:30N 29°21' W 094°49'0 0.0
2018-Jun-13 07:00N 29°21' W 094°49'0 0.0
2018-Jun-13 06:30N 29°21' W 094°49'0 0.0
2018-Jun-13 06:00N 29°21' W 094°49'0 0.0
2018-Jun-13 05:30N 29°21' W 094°49'0 0.0
2018-Jun-13 05:00N 29°21' W 094°49'0 0.0
2018-Jun-13 04:30N 29°21' W 094°49'0 0.0
2018-Jun-13 04:00N 29°21' W 094°49'0 0.0
2018-Jun-13 03:30N 29°21' W 094°49'0 0.0
2018-Jun-13 03:01N 29°21' W 094°49'0 0.0
2018-Jun-13 02:31N 29°21' W 094°49'0 0.0
2018-Jun-13 02:00N 29°21' W 094°49'0 0.0
2018-Jun-13 01:30N 29°21' W 094°49'0 0.0
2018-Jun-13 01:00N 29°21' W 094°49'0 0.0
2018-Jun-13 00:30N 29°21' W 094°49'0 0.0
2018-Jun-13 00:00N 29°21' W 094°49'0 0.0
2018-Jun-12 23:30N 29°21' W 094°49'0 0.0
2018-Jun-12 23:00N 29°21' W 094°49'0 0.0
2018-Jun-12 22:30N 29°21' W 094°49'0 0.0
2018-Jun-12 22:00N 29°21' W 094°49'1 2.8
2018-Jun-12 21:30N 29°20' W 094°51'3 6.2
2018-Jun-12 21:00N 29°18' W 094°53'2 3.5
2018-Jun-12 20:30N 29°17' W 094°55'3 5.4
2018-Jun-12 20:00N 29°17' W 094°58'3 5.1
2018-Jun-12 19:30N 29°15' W 095°00'3 5.2
2018-Jun-12 19:00N 29°13' W 095°02'3 5.1
2018-Jun-12 18:31N 29°12' W 095°04'3 5.5
2018-Jun-12 18:00N 29°10' W 095°07'3 5.8
2018-Jun-12 17:31N 29°08' W 095°10'3 5.3
2018-Jun-12 17:00N 29°07' W 095°12'3 5.2
2018-Jun-12 16:30N 29°04' W 095°13'3 5.1
2018-Jun-12 16:00N 29°02' W 095°14'3 5.3
2018-Jun-12 15:30N 28°59' W 095°15'2 4.9
2018-Jun-12 15:00N 28°58' W 095°17'3 0.1
2018-Jun-11 00:58N 28°56' W 095°20'3 5.6
2018-Jun-11 00:29N 28°58' W 095°17'3 5.8
2018-Jun-11 00:00N 28°60' W 095°15'3 5.7
2018-Jun-10 23:30N 29°02' W 095°14'2 5.0
2018-Jun-10 23:00N 29°04' W 095°13'2 4.6
2018-Jun-10 22:30N 29°07' W 095°12'2 4.5
2018-Jun-10 22:00N 29°08' W 095°10'3 5.1
2018-Jun-10 21:30N 29°10' W 095°08'2 4.1
2018-Jun-10 21:00N 29°11' W 095°06'3 5.1
2018-Jun-10 20:30N 29°12' W 095°03'2 5.0
2018-Jun-10 20:00N 29°14' W 095°01'3 5.3
2018-Jun-10 19:30N 29°16' W 094°59'2 4.9
2018-Jun-10 19:00N 29°17' W 094°57'3 5.1
2018-Jun-10 18:30N 29°17' W 094°54'3 5.5
2018-Jun-10 18:00N 29°19' W 094°52'3 5.6
2018-Jun-10 17:30N 29°21' W 094°49'3 6.5
2018-Jun-10 17:00N 29°23' W 094°46'20 5.3
2018-Jun-10 13:18N 29°34' W 094°28'2 5.1
2018-Jun-10 12:56N 29°34' W 094°25'2 4.2
2018-Jun-10 12:29N 29°36' W 094°25'1 2.6
2018-Jun-10 12:00N 29°36' W 094°23'1 2.9
2018-Jun-10 11:30N 29°36' W 094°22'2 5.0
2018-Jun-10 11:00N 29°38' W 094°19'3 5.1
2018-Jun-10 10:30N 29°39' W 094°17'3 5.2
2018-Jun-10 10:00N 29°40' W 094°14'3 5.4
2018-Jun-10 09:30N 29°41' W 094°11'3 5.5
2018-Jun-10 09:00N 29°42' W 094°08'3 5.9
2018-Jun-10 08:31N 29°44' W 094°06'3 6.0
2018-Jun-10 08:00N 29°46' W 094°03'3 5.1
2018-Jun-10 07:30N 29°48' W 094°01'3 5.1
2018-Jun-10 07:01N 29°49' W 093°58'3 5.8
2018-Jun-10 06:30N 29°52' W 093°56'3 6.5
2018-Jun-10 06:00N 29°54' W 093°54'4 7.5
2018-Jun-10 05:31N 29°57' W 093°52'3 6.0
2018-Jun-10 05:00N 29°59' W 093°49'4 7.2
2018-Jun-10 04:30N 30°01' W 093°45'4 6.2
2018-Jun-10 03:57N 30°03' W 093°42'3 5.8
2018-Jun-10 03:30N 30°04' W 093°40'3 5.6
2018-Jun-10 03:00N 30°04' W 093°36'2 4.8
2018-Jun-10 02:30N 30°04' W 093°34'2 4.2
2018-Jun-10 02:00N 30°04' W 093°31'  

Dump ship's entire track history